Time;durP1;ratioP1;P1;durP2;ratioP2;P2;SDS_P1;SDS_P2;PMS_P1;PMS_P2;Temp;Humidity;BMP_temperature;BMP_pressure;BME280_temperature;BME280_humidity;BME280_pressure;Samples;Min_cycle;Max_cycle;Signal;HPM_P1;HPM_P2
2022/09/24 00:00:27;;;;;;;68.10;28.02;;;14.50;99.90;;;;;;5058405;28;20540;-73
2022/09/24 00:02:53;;;;;;;77.57;31.25;;;14.50;99.90;;;;;;5063834;28;20028;-73
2022/09/24 00:05:19;;;;;;;69.95;26.75;;;14.50;99.90;;;;;;5066382;28;20510;-72
2022/09/24 00:07:44;;;;;;;70.57;28.25;;;14.50;99.90;;;;;;5064534;28;20033;-73
2022/09/24 00:10:10;;;;;;;78.40;31.13;;;14.50;99.90;;;;;;5065140;28;20049;-72
2022/09/24 00:12:36;;;;;;;81.40;32.72;;;14.50;99.90;;;;;;5065693;28;20025;-72
2022/09/24 00:15:02;;;;;;;76.43;30.83;;;14.50;99.90;;;;;;5056720;28;20025;-72
2022/09/24 00:17:28;;;;;;;77.10;29.80;;;14.60;99.90;;;;;;5063211;28;20028;-72
2022/09/24 00:19:53;;;;;;;74.70;30.10;;;14.60;99.90;;;;;;5066165;28;20027;-72
2022/09/24 00:22:19;;;;;;;81.40;33.75;;;14.60;99.90;;;;;;5064553;28;20021;-72
2022/09/24 00:27:29;;;;;;;91.68;34.67;;;14.60;99.90;;;;;;5065505;28;20090;-72
2022/09/24 00:29:54;;;;;;;85.35;33.20;;;14.60;99.90;;;;;;5061064;28;20395;-72
2022/09/24 00:32:22;;;;;;;89.53;33.28;;;14.60;99.90;;;;;;5065129;28;20519;-73
2022/09/24 00:34:50;;;;;;;82.63;33.83;;;14.70;99.90;;;;;;5065866;28;20029;-73
2022/09/24 00:37:18;;;;;;;85.65;33.58;;;14.60;99.90;;;;;;5061677;28;20477;-72
2022/09/24 00:39:45;;;;;;;82.70;36.38;;;14.70;99.90;;;;;;5064762;28;20393;-73
2022/09/24 00:42:14;;;;;;;84.50;33.83;;;14.70;99.90;;;;;;5065869;28;20028;-73
2022/09/24 00:44:51;;;;;;;80.80;31.45;;;14.70;99.90;;;;;;5064702;28;20104;-73
2022/09/24 00:47:32;;;;;;;81.07;31.48;;;14.70;99.90;;;;;;5061930;28;20036;-73
2022/09/24 00:50:17;;;;;;;64.50;24.88;;;14.70;99.90;;;;;;5062058;28;20581;-72
2022/09/24 00:52:54;;;;;;;76.85;32.03;;;14.60;99.90;;;;;;5063198;28;20021;-73
2022/09/24 00:55:22;;;;;;;81.07;31.65;;;14.60;99.90;;;;;;5062211;28;20086;-73
2022/09/24 00:57:52;;;;;;;75.68;32.50;;;14.60;99.90;;;;;;5063560;28;20052;-73
2022/09/24 01:00:18;;;;;;;76.70;30.63;;;14.70;99.90;;;;;;5061900;28;20104;-72
2022/09/24 01:02:46;;;;;;;72.47;30.13;;;14.70;99.90;;;;;;5063792;28;20104;-72
2022/09/24 01:05:12;;;;;;;67.30;29.25;;;14.60;99.90;;;;;;5059856;28;20075;-73
2022/09/24 01:07:38;;;;;;;73.20;29.92;;;14.60;99.90;;;;;;5054436;28;20029;-72
2022/09/24 01:10:04;;;;;;;68.03;28.02;;;14.60;99.90;;;;;;5054041;28;20127;-73
2022/09/24 01:12:49;;;;;;;63.75;29.42;;;14.60;99.90;;;;;;5053621;28;20032;-72
2022/09/24 01:15:27;;;;;;;66.30;27.42;;;14.50;99.90;;;;;;5053461;28;20025;-72
2022/09/24 01:18:02;;;;;;;59.05;28.42;;;14.50;99.90;;;;;;5054315;28;20041;-72
2022/09/24 01:20:52;;;;;;;58.75;24.77;;;14.50;99.90;;;;;;5054139;28;20415;-72
2022/09/24 01:23:56;;;;;;;63.45;28.58;;;14.50;99.90;;;;;;5053048;28;20406;-72
2022/09/24 01:26:41;;;;;;;70.47;28.90;;;14.50;99.90;;;;;;5050608;28;20033;-73
2022/09/24 01:29:42;;;;;;;65.53;29.25;;;14.50;99.90;;;;;;5053432;28;20050;-73
2022/09/24 01:32:21;;;;;;;61.88;27.02;;;14.50;99.90;;;;;;5054075;28;20039;-73
2022/09/24 01:34:52;;;;;;;62.70;28.15;;;14.50;99.90;;;;;;5054079;28;20477;-73
2022/09/24 01:37:21;;;;;;;69.70;28.42;;;14.50;99.90;;;;;;5053697;28;20045;-73
2022/09/24 01:39:51;;;;;;;60.67;29.10;;;14.60;99.90;;;;;;5054023;28;20121;-73
2022/09/24 01:42:19;;;;;;;67.47;28.95;;;14.60;99.90;;;;;;5053824;28;20029;-73
2022/09/24 01:44:45;;;;;;;58.78;26.30;;;14.60;99.90;;;;;;5052611;28;20048;-73
2022/09/24 01:47:18;;;;;;;64.30;29.08;;;14.60;99.90;;;;;;5052340;28;20374;-73
2022/09/24 01:49:45;;;;;;;59.60;28.52;;;14.60;99.90;;;;;;5053635;28;20073;-73
2022/09/24 01:52:17;;;;;;;60.20;27.92;;;14.70;99.90;;;;;;5053345;28;20032;-73
2022/09/24 01:54:50;;;;;;;61.80;28.42;;;14.70;99.90;;;;;;5053682;28;20111;-73
2022/09/24 01:57:26;;;;;;;55.47;27.02;;;14.70;99.90;;;;;;5053599;28;20520;-74
2022/09/24 02:00:01;;;;;;;59.13;26.75;;;14.70;99.90;;;;;;5053138;28;20166;-74
2022/09/24 02:02:44;;;;;;;54.67;24.98;;;14.70;99.90;;;;;;5053518;28;20470;-74
2022/09/24 02:05:23;;;;;;;54.22;27.80;;;14.70;99.90;;;;;;5053520;28;20025;-74
2022/09/24 02:08:07;;;;;;;52.03;25.85;;;14.60;99.90;;;;;;5053408;28;20151;-74
2022/09/24 02:10:45;;;;;;;53.88;25.80;;;14.60;99.90;;;;;;5053168;28;20052;-73
2022/09/24 02:13:13;;;;;;;55.80;25.88;;;14.60;99.90;;;;;;5053380;28;20039;-74
2022/09/24 02:15:44;;;;;;;56.67;25.65;;;14.60;99.90;;;;;;5053298;28;20037;-76
2022/09/24 02:18:13;;;;;;;55.13;25.45;;;14.60;99.90;;;;;;5053349;28;20124;-73
2022/09/24 02:20:42;;;;;;;58.78;25.23;;;14.60;99.90;;;;;;5053182;28;20120;-73
2022/09/24 02:23:10;;;;;;;57.15;26.05;;;14.60;99.90;;;;;;5052976;28;20028;-74
2022/09/24 02:26:02;;;;;;;53.97;25.17;;;14.60;99.90;;;;;;5052978;28;20492;-74
2022/09/24 02:28:29;;;;;;;58.58;27.30;;;14.60;99.90;;;;;;5050216;28;20048;-73
2022/09/24 02:31:04;;;;;;;55.72;26.58;;;14.60;99.90;;;;;;5052866;28;20037;-73
2022/09/24 02:36:17;;;;;;;50.30;24.42;;;14.60;99.90;;;;;;5053353;28;20540;-73
2022/09/24 02:38:45;;;;;;;49.88;24.85;;;14.70;99.90;;;;;;5053123;28;20082;-73
2022/09/24 02:41:12;;;;;;;53.90;26.10;;;14.70;99.90;;;;;;5052494;28;20064;-74
2022/09/24 02:43:39;;;;;;;53.88;26.05;;;14.70;99.90;;;;;;5052595;28;20025;-73
2022/09/24 02:46:08;;;;;;;55.78;27.02;;;14.70;99.90;;;;;;5052716;28;20467;-73
2022/09/24 02:48:35;;;;;;;54.88;26.20;;;14.70;99.90;;;;;;5052655;28;20112;-73
2022/09/24 02:51:03;;;;;;;56.13;25.98;;;14.70;99.90;;;;;;5052500;28;20075;-74
2022/09/24 02:53:29;;;;;;;51.60;25.52;;;14.70;99.90;;;;;;5052641;28;20040;-73
2022/09/24 02:55:54;;;;;;;52.10;25.83;;;14.80;99.90;;;;;;5052381;28;20163;-74
2022/09/24 02:58:20;;;;;;;53.97;24.75;;;14.80;99.90;;;;;;5052120;28;20511;-74
2022/09/24 03:00:46;;;;;;;58.63;25.00;;;14.80;99.90;;;;;;5052485;28;20574;-74
2022/09/24 03:03:11;;;;;;;47.65;24.15;;;14.80;99.90;;;;;;5052626;28;20033;-75
2022/09/24 03:05:37;;;;;;;48.75;22.80;;;14.80;99.90;;;;;;5052765;28;20029;-75
2022/09/24 03:08:03;;;;;;;44.03;22.10;;;14.70;99.90;;;;;;5052314;28;20029;-75
2022/09/24 03:10:29;;;;;;;31.00;14.82;;;14.80;99.90;;;;;;5051727;28;20053;-75
2022/09/24 03:12:55;;;;;;;26.75;12.35;;;14.80;99.90;;;;;;5052371;28;20466;-75
2022/09/24 03:15:21;;;;;;;29.30;14.02;;;14.70;99.90;;;;;;5052277;28;20534;-75
2022/09/24 03:17:47;;;;;;;29.20;13.40;;;14.70;99.90;;;;;;5052596;28;20135;-75
2022/09/24 03:20:12;;;;;;;20.65;8.63;;;14.70;99.90;;;;;;5052637;28;20029;-75
2022/09/24 03:22:38;;;;;;;16.17;6.88;;;14.70;99.90;;;;;;5052595;28;20154;-75
2022/09/24 03:25:04;;;;;;;15.27;5.78;;;14.70;99.90;;;;;;5052521;28;20389;-76
2022/09/24 03:27:30;;;;;;;15.35;4.80;;;14.70;99.90;;;;;;5052420;28;20105;-75
2022/09/24 03:32:39;;;;;;;12.70;4.32;;;14.70;99.90;;;;;;5052232;28;20115;-76
2022/09/24 03:35:05;;;;;;;16.13;3.80;;;14.70;99.90;;;;;;5052544;28;20100;-76
2022/09/24 03:37:32;;;;;;;11.60;3.28;;;14.70;99.90;;;;;;5054436;28;20155;-76
2022/09/24 03:39:58;;;;;;;10.82;3.38;;;14.70;99.90;;;;;;5056652;28;20029;-75
2022/09/24 03:42:23;;;;;;;11.82;3.20;;;14.70;99.90;;;;;;5056813;28;20036;-75
2022/09/24 03:44:49;;;;;;;9.05;2.67;;;14.60;99.90;;;;;;5056508;28;20075;-75
2022/09/24 03:47:14;;;;;;;8.25;2.20;;;14.60;99.90;;;;;;5056342;28;20425;-76
2022/09/24 03:49:41;;;;;;;6.63;2.40;;;14.60;99.90;;;;;;5056313;28;20107;-75
2022/09/24 03:52:06;;;;;;;7.05;2.30;;;14.60;99.90;;;;;;5054707;28;20075;-75
2022/09/24 03:54:33;;;;;;;8.82;2.58;;;14.50;99.90;;;;;;5056541;28;20028;-75
2022/09/24 03:56:59;;;;;;;8.27;2.95;;;14.60;99.90;;;;;;5055829;28;20104;-75
2022/09/24 03:59:24;;;;;;;9.85;2.75;;;14.50;99.90;;;;;;5055771;28;20112;-75
2022/09/24 04:01:50;;;;;;;12.45;2.90;;;14.50;99.90;;;;;;5056016;28;20032;-75
2022/09/24 04:04:15;;;;;;;9.35;2.80;;;14.50;99.90;;;;;;5056557;28;20037;-75
2022/09/24 04:06:41;;;;;;;13.70;2.90;;;14.50;99.90;;;;;;5056146;28;20040;-76
2022/09/24 04:09:07;;;;;;;8.40;2.65;;;14.60;99.90;;;;;;5056175;28;20473;-75
2022/09/24 04:11:34;;;;;;;13.23;3.53;;;14.50;99.90;;;;;;5056374;28;20053;-75
2022/09/24 04:13:59;;;;;;;12.15;3.33;;;14.50;99.90;;;;;;5055654;28;20383;-75
2022/09/24 04:16:25;;;;;;;11.77;3.30;;;14.50;99.90;;;;;;5055789;28;20024;-75
2022/09/24 04:18:51;;;;;;;9.57;3.10;;;14.50;99.90;;;;;;5054233;28;20037;-75
2022/09/24 04:21:16;;;;;;;10.95;3.10;;;14.50;99.90;;;;;;5055347;28;20061;-75
2022/09/24 04:23:42;;;;;;;7.28;2.58;;;14.50;99.90;;;;;;5055390;28;20021;-74
2022/09/24 04:26:08;;;;;;;12.25;3.15;;;14.50;99.90;;;;;;5055293;28;20394;-73
2022/09/24 04:28:34;;;;;;;6.88;2.92;;;14.50;99.90;;;;;;5055548;28;20029;-76
2022/09/24 04:30:59;;;;;;;8.30;2.78;;;14.40;99.90;;;;;;5055615;28;20380;-74
2022/09/24 04:33:25;;;;;;;12.63;2.65;;;14.40;99.90;;;;;;5055519;28;20021;-74
2022/09/24 04:35:51;;;;;;;9.70;2.92;;;14.40;99.90;;;;;;5054963;28;20021;-74
2022/09/24 04:38:19;;;;;;;11.70;3.10;;;14.40;99.90;;;;;;5055129;28;20068;-74
2022/09/24 04:40:46;;;;;;;13.73;3.10;;;14.40;99.90;;;;;;5055281;28;20029;-74
2022/09/24 04:43:12;;;;;;;9.32;2.60;;;14.30;99.90;;;;;;5055211;28;20107;-74
2022/09/24 04:45:37;;;;;;;12.05;2.58;;;14.40;99.90;;;;;;5054698;28;20044;-74
2022/09/24 04:48:03;;;;;;;8.35;2.42;;;14.30;99.90;;;;;;5054314;28;20208;-73
2022/09/24 04:50:33;;;;;;;9.55;2.60;;;14.30;99.90;;;;;;5054931;28;20029;-73
2022/09/24 04:53:00;;;;;;;9.20;3.05;;;14.30;99.90;;;;;;5054866;28;20033;-74
2022/09/24 04:55:26;;;;;;;16.50;3.65;;;14.30;99.90;;;;;;5054895;28;20078;-74
2022/09/24 04:57:55;;;;;;;17.30;3.50;;;14.30;99.90;;;;;;5054955;28;20459;-74
2022/09/24 05:00:20;;;;;;;14.07;3.33;;;14.30;99.90;;;;;;5054831;28;20021;-74
2022/09/24 05:02:46;;;;;;;8.25;2.95;;;14.30;99.90;;;;;;5055350;28;20497;-74
2022/09/24 05:05:12;;;;;;;14.30;3.13;;;14.40;99.90;;;;;;5054767;28;20482;-74
2022/09/24 05:07:39;;;;;;;13.18;3.22;;;14.40;99.90;;;;;;5054869;28;20843;-74
2022/09/24 05:10:05;;;;;;;10.18;3.30;;;14.40;99.90;;;;;;5054415;28;20116;-74
2022/09/24 05:12:32;;;;;;;12.75;2.75;;;14.40;99.90;;;;;;5054588;28;20029;-74
2022/09/24 05:14:58;;;;;;;14.65;5.30;;;14.40;99.90;;;;;;5054825;28;20413;-75
2022/09/24 05:17:23;;;;;;;5.63;2.08;;;14.30;99.90;;;;;;5054828;28;20040;-75
2022/09/24 05:19:49;;;;;;;14.13;3.30;;;14.30;99.90;;;;;;5054723;28;20021;-75
2022/09/24 05:22:15;;;;;;;16.20;3.40;;;14.30;99.90;;;;;;5054588;28;20079;-75
2022/09/24 05:24:40;;;;;;;14.45;2.50;;;14.40;99.90;;;;;;5054492;28;20024;-74
2022/09/24 05:27:09;;;;;;;8.18;2.60;;;14.40;99.90;;;;;;5054256;28;20033;-74
2022/09/24 05:29:40;;;;;;;15.13;2.90;;;14.40;99.90;;;;;;5054385;28;20025;-74
2022/09/24 05:32:08;;;;;;;9.73;2.90;;;14.40;99.90;;;;;;5054379;28;20029;-75
2022/09/24 05:34:34;;;;;;;11.50;2.90;;;14.30;99.90;;;;;;5053870;28;20376;-75
2022/09/24 05:37:01;;;;;;;11.32;3.08;;;14.40;99.90;;;;;;5053905;28;20025;-74
2022/09/24 05:39:27;;;;;;;18.95;3.53;;;14.30;99.90;;;;;;5054247;28;20529;-75
2022/09/24 05:41:53;;;;;;;16.52;3.38;;;14.30;99.90;;;;;;5054302;28;20530;-75
2022/09/24 05:44:20;;;;;;;17.15;3.60;;;14.40;99.90;;;;;;5054109;28;20109;-75
2022/09/24 05:46:47;;;;;;;16.80;2.58;;;14.40;99.90;;;;;;5054297;28;20142;-75
2022/09/24 05:49:12;;;;;;;10.73;3.03;;;14.30;99.90;;;;;;5054056;28;20378;-75
2022/09/24 05:51:38;;;;;;;7.60;3.05;;;14.30;99.90;;;;;;5054022;28;20455;-75
2022/09/24 05:54:03;;;;;;;16.17;3.75;;;14.30;99.90;;;;;;5053715;28;20470;-75
2022/09/24 05:56:29;;;;;;;13.02;2.80;;;14.40;99.90;;;;;;5053615;28;20025;-76
2022/09/24 05:58:54;;;;;;;10.32;2.67;;;14.30;99.90;;;;;;5053466;28;20044;-75
2022/09/24 06:01:20;;;;;;;9.27;2.72;;;14.40;99.90;;;;;;5053354;28;20036;-75
2022/09/24 06:03:46;;;;;;;13.52;2.75;;;14.40;99.90;;;;;;5053464;28;20032;-76
2022/09/24 06:06:12;;;;;;;17.08;3.97;;;14.30;99.90;;;;;;5053515;28;20526;-75
2022/09/24 06:08:37;;;;;;;14.13;2.85;;;14.30;99.90;;;;;;5053455;28;20113;-76
2022/09/24 06:11:07;;;;;;;10.30;2.97;;;14.40;99.90;;;;;;5053864;28;20075;-76
2022/09/24 06:13:33;;;;;;;13.80;3.78;;;14.30;99.90;;;;;;5053656;28;20096;-76
2022/09/24 06:16:11;;;;;;;12.77;3.03;;;14.30;99.90;;;;;;5053621;28;20368;-76
2022/09/24 06:18:38;;;;;;;13.20;3.00;;;14.30;99.90;;;;;;5053570;28;20041;-76
2022/09/24 06:21:06;;;;;;;17.80;3.20;;;14.30;99.90;;;;;;5053325;28;20475;-76
2022/09/24 06:23:33;;;;;;;10.45;2.70;;;14.30;99.90;;;;;;5053031;28;20032;-75
2022/09/24 06:25:59;;;;;;;20.38;2.95;;;14.30;99.90;;;;;;5053128;28;20025;-75
2022/09/24 06:28:25;;;;;;;14.43;2.47;;;14.20;99.90;;;;;;5053296;28;20034;-75
2022/09/24 06:30:51;;;;;;;15.68;2.95;;;14.20;99.90;;;;;;5051658;28;20459;-75
2022/09/24 06:33:18;;;;;;;13.48;2.50;;;14.20;99.90;;;;;;5053232;28;20032;-75
2022/09/24 06:35:43;;;;;;;11.93;2.85;;;14.20;99.90;;;;;;5052913;28;20028;-75
2022/09/24 06:38:15;;;;;;;11.98;2.78;;;14.20;99.90;;;;;;5053028;28;20043;-75
2022/09/24 06:40:42;;;;;;;10.75;2.25;;;14.20;99.90;;;;;;5053058;28;20508;-75
2022/09/24 06:43:09;;;;;;;13.50;2.30;;;14.20;99.90;;;;;;5053133;28;20055;-75
2022/09/24 06:45:35;;;;;;;16.65;2.78;;;14.20;99.90;;;;;;5051849;28;20048;-74
2022/09/24 06:48:03;;;;;;;13.77;2.35;;;14.20;99.90;;;;;;5051718;28;20378;-75
2022/09/24 06:50:30;;;;;;;15.52;2.72;;;14.20;99.90;;;;;;5052926;28;20021;-75
2022/09/24 06:52:57;;;;;;;19.13;2.97;;;14.20;99.90;;;;;;5052668;28;20479;-75
2022/09/24 06:55:23;;;;;;;15.52;2.97;;;14.30;99.90;;;;;;5052765;28;20049;-76
2022/09/24 06:57:48;;;;;;;9.40;2.38;;;14.30;99.90;;;;;;5052629;28;20100;-75
2022/09/24 07:00:15;;;;;;;14.30;2.58;;;14.40;99.90;;;;;;5052487;28;20058;-74
2022/09/24 07:02:41;;;;;;;14.65;2.67;;;14.40;99.90;;;;;;5052537;28;20143;-74
2022/09/24 07:05:08;;;;;;;11.88;2.90;;;14.40;99.90;;;;;;5052628;28;20088;-74
2022/09/24 07:07:34;;;;;;;11.15;2.15;;;14.40;99.90;;;;;;5052430;28;20035;-75
2022/09/24 07:10:02;;;;;;;11.25;3.25;;;14.40;99.90;;;;;;5052515;28;20195;-75
2022/09/24 07:12:29;;;;;;;7.32;1.58;;;14.50;99.90;;;;;;5051925;28;20169;-74
2022/09/24 07:14:55;;;;;;;10.90;2.72;;;14.40;99.90;;;;;;5052355;28;20049;-74
2022/09/24 07:17:21;;;;;;;11.98;2.97;;;14.40;99.90;;;;;;5052361;28;20319;-75
2022/09/24 07:19:47;;;;;;;15.63;2.65;;;14.50;99.90;;;;;;5052356;28;20044;-75
2022/09/24 07:22:12;;;;;;;15.20;2.28;;;14.50;99.90;;;;;;5052196;28;20036;-75
2022/09/24 07:24:38;;;;;;;18.63;2.20;;;14.50;99.90;;;;;;5050882;28;20025;-75
2022/09/24 07:27:04;;;;;;;9.07;1.60;;;14.60;99.90;;;;;;5052211;28;20100;-74
2022/09/24 07:29:30;;;;;;;12.55;2.83;;;14.70;99.90;;;;;;5051923;28;20467;-74
2022/09/24 07:31:56;;;;;;;10.32;2.60;;;14.80;99.90;;;;;;5052421;28;20078;-75
2022/09/24 07:34:21;;;;;;;6.65;1.60;;;14.90;99.90;;;;;;5052245;28;20021;-74
2022/09/24 07:36:47;;;;;;;10.75;2.20;;;15.00;99.90;;;;;;5052102;28;20368;-75
2022/09/24 07:39:13;;;;;;;14.20;2.00;;;15.10;99.90;;;;;;5051900;28;20394;-75
2022/09/24 07:41:39;;;;;;;10.95;1.98;;;15.20;99.90;;;;;;5052053;28;20029;-74
2022/09/24 07:44:06;;;;;;;10.52;2.97;;;15.30;99.90;;;;;;5052255;28;20389;-75
2022/09/24 07:46:32;;;;;;;13.48;2.17;;;15.40;99.90;;;;;;5052150;28;20025;-75
2022/09/24 07:48:57;;;;;;;10.07;1.65;;;15.60;99.90;;;;;;5052010;28;20155;-74
2022/09/24 07:51:24;;;;;;;12.65;2.10;;;15.70;99.90;;;;;;5051965;28;20028;-74
2022/09/24 07:53:50;;;;;;;10.00;2.30;;;15.80;99.90;;;;;;5051867;28;20017;-73
2022/09/24 07:56:16;;;;;;;7.97;2.38;;;15.80;99.90;;;;;;5051833;28;20039;-74
2022/09/24 07:58:42;;;;;;;11.73;2.22;;;15.80;99.90;;;;;;5052258;28;20043;-73
2022/09/24 08:01:07;;;;;;;10.02;1.58;;;15.80;99.90;;;;;;5052197;28;20039;-73
2022/09/24 08:03:33;;;;;;;9.38;1.60;;;15.80;99.90;;;;;;5052605;28;20037;-73
2022/09/24 08:06:00;;;;;;;8.90;1.42;;;15.80;99.90;;;;;;5052223;28;20025;-74
2022/09/24 08:08:26;;;;;;;7.85;1.63;;;15.90;99.90;;;;;;5052020;28;20029;-74
2022/09/24 08:10:52;;;;;;;8.10;1.63;;;15.90;99.90;;;;;;5051709;28;20059;-74
2022/09/24 08:13:18;;;;;;;7.53;1.42;;;15.90;99.90;;;;;;5050821;28;20143;-73
2022/09/24 08:15:43;;;;;;;8.63;1.40;;;15.90;99.90;;;;;;5051014;28;20040;-74
2022/09/24 08:18:09;;;;;;;8.10;1.58;;;16.00;99.90;;;;;;5051462;28;20132;-74
2022/09/24 08:20:37;;;;;;;10.77;2.30;;;16.00;99.90;;;;;;5051248;28;20031;-74
2022/09/24 08:23:04;;;;;;;7.75;1.55;;;16.00;99.90;;;;;;5052818;28;20455;-74
2022/09/24 08:25:30;;;;;;;5.13;1.25;;;16.00;99.90;;;;;;5055399;28;20025;-73
2022/09/24 08:28:07;;;;;;;8.90;1.33;;;16.00;99.90;;;;;;5055534;28;20040;-76
2022/09/24 08:30:33;;;;;;;9.35;2.00;;;16.00;99.90;;;;;;5055493;28;20090;-74
2022/09/24 08:32:59;;;;;;;9.98;2.13;;;16.00;99.90;;;;;;5055557;28;20065;-74
2022/09/24 08:35:24;;;;;;;13.05;1.83;;;16.00;99.90;;;;;;5055379;28;20059;-74
2022/09/24 08:37:52;;;;;;;6.85;0.90;;;16.10;99.90;;;;;;5054965;28;20535;-74
2022/09/24 08:40:26;;;;;;;7.40;1.58;;;16.10;99.90;;;;;;5055219;28;20048;-74
2022/09/24 08:43:16;;;;;;;9.93;1.63;;;16.20;99.90;;;;;;5055191;28;20033;-74
2022/09/24 08:48:36;;;;;;;5.47;1.10;;;16.40;99.90;;;;;;5054956;28;20505;-74
2022/09/24 08:51:07;;;;;;;7.13;1.42;;;16.50;99.90;;;;;;5055281;28;20029;-74
2022/09/24 08:53:57;;;;;;;11.02;1.73;;;16.60;99.90;;;;;;5055475;28;20025;-74
2022/09/24 08:56:26;;;;;;;5.38;1.20;;;16.70;99.90;;;;;;5055518;28;20083;-74
2022/09/24 08:59:10;;;;;;;6.85;1.20;;;16.90;99.90;;;;;;5054681;28;20409;-75
2022/09/24 09:01:49;;;;;;;9.75;1.85;;;17.00;99.90;;;;;;5055454;28;20315;-74
2022/09/24 09:04:57;;;;;;;4.82;1.35;;;17.10;99.90;;;;;;5054038;28;20115;-73
2022/09/24 09:07:31;;;;;;;8.25;1.33;;;17.30;99.90;;;;;;5053263;28;20029;-75
2022/09/24 09:10:08;;;;;;;6.38;1.25;;;17.50;99.90;;;;;;5044887;28;20045;-74
2022/09/24 09:12:39;;;;;;;7.63;1.20;;;17.60;99.90;;;;;;5034766;28;20032;-74
2022/09/24 09:15:12;;;;;;;6.88;2.17;;;17.70;99.90;;;;;;5034644;28;20032;-75
2022/09/24 09:17:46;;;;;;;6.40;1.08;;;17.70;99.90;;;;;;5034513;28;20128;-76
2022/09/24 09:20:24;;;;;;;6.53;1.35;;;17.80;99.90;;;;;;5033037;28;20038;-75
2022/09/24 09:22:52;;;;;;;5.57;1.33;;;17.70;99.90;;;;;;5034778;28;20103;-74
2022/09/24 09:25:24;;;;;;;7.55;1.45;;;17.60;99.90;;;;;;5034801;28;20026;-76
2022/09/24 09:28:06;;;;;;;12.65;1.52;;;17.60;99.90;;;;;;5034411;28;20048;-73
2022/09/24 09:30:55;;;;;;;6.27;1.37;;;17.60;99.90;;;;;;5033294;28;20025;-75
2022/09/24 09:33:32;;;;;;;6.82;1.17;;;17.50;99.90;;;;;;5034447;28;20026;-74
2022/09/24 09:36:18;;;;;;;4.10;1.08;;;17.50;99.90;;;;;;5033216;28;20484;-74
2022/09/24 09:39:10;;;;;;;4.72;1.00;;;17.50;99.90;;;;;;5034167;28;20048;-76
2022/09/24 09:41:47;;;;;;;3.42;0.80;;;17.40;99.90;;;;;;5033658;28;20044;-74
2022/09/24 09:44:24;;;;;;;8.00;0.93;;;17.40;99.90;;;;;;5034053;28;20113;-73
2022/09/24 09:47:44;;;;;;;5.80;1.63;;;17.30;99.90;;;;;;5038952;28;20055;-73
2022/09/24 09:50:40;;;;;;;4.35;1.52;;;17.30;99.90;;;;;;5056602;28;20127;-73
2022/09/24 09:53:16;;;;;;;7.85;1.38;;;17.40;99.90;;;;;;5068703;28;20115;-74
2022/09/24 09:55:42;;;;;;;5.97;1.35;;;17.40;99.90;;;;;;5073824;28;20025;-73
2022/09/24 09:58:14;;;;;;;9.13;1.10;;;17.50;99.90;;;;;;5073789;28;20036;-73
2022/09/24 10:00:40;;;;;;;5.40;1.15;;;17.50;99.90;;;;;;5053164;28;20454;-73
2022/09/24 10:03:20;;;;;;;8.68;1.58;;;17.50;99.90;;;;;;5032869;28;20037;-74
2022/09/24 10:05:54;;;;;;;2.88;0.95;;;17.50;99.90;;;;;;5033652;28;20108;-73
2022/09/24 10:08:21;;;;;;;7.68;1.52;;;17.50;99.90;;;;;;5033778;28;20048;-73
2022/09/24 10:11:02;;;;;;;6.65;1.65;;;17.50;99.90;;;;;;5033169;28;20061;-74
2022/09/24 10:13:30;;;;;;;3.95;0.90;;;17.40;99.90;;;;;;5033484;28;20029;-75
2022/09/24 10:16:02;;;;;;;4.97;0.73;;;17.30;99.90;;;;;;5033471;28;20033;-75
2022/09/24 10:18:31;;;;;;;6.07;0.95;;;17.20;99.90;;;;;;5033588;28;20034;-74
2022/09/24 10:20:58;;;;;;;7.38;1.38;;;17.10;99.90;;;;;;5033489;28;20037;-74
2022/09/24 10:23:50;;;;;;;2.88;0.80;;;17.00;99.90;;;;;;5033561;28;20030;-74
2022/09/24 10:26:16;;;;;;;6.75;1.02;;;17.00;99.90;;;;;;5032507;28;20029;-75
2022/09/24 10:31:38;;;;;;;3.60;1.00;;;16.90;99.90;;;;;;5033369;28;20028;-75
2022/09/24 10:34:20;;;;;;;5.88;1.10;;;17.00;99.90;;;;;;5033187;28;20095;-73
2022/09/24 10:37:13;;;;;;;8.63;0.90;;;17.00;99.90;;;;;;5036049;28;20147;-75
2022/09/24 10:39:39;;;;;;;7.32;0.90;;;17.00;99.90;;;;;;5045695;28;20094;-74
2022/09/24 10:42:06;;;;;;;4.45;1.30;;;17.00;99.90;;;;;;5052962;28;20033;-73
2022/09/24 10:44:35;;;;;;;7.43;1.73;;;16.90;99.90;;;;;;5052515;28;20033;-73
2022/09/24 10:47:33;;;;;;;7.00;1.33;;;16.90;99.90;;;;;;5052477;28;20108;-74
2022/09/24 10:50:28;;;;;;;5.75;1.08;;;17.00;99.90;;;;;;5053129;28;20507;-74
2022/09/24 10:53:02;;;;;;;6.80;1.40;;;17.10;99.90;;;;;;5052827;28;20041;-74
2022/09/24 10:56:05;;;;;;;5.68;0.85;;;17.20;99.90;;;;;;5052616;28;20029;-74
2022/09/24 10:59:06;;;;;;;6.20;1.17;;;17.40;99.90;;;;;;5052579;28;20064;-74
2022/09/24 11:01:58;;;;;;;10.10;1.52;;;17.50;99.90;;;;;;5052887;28;20116;-75
2022/09/24 11:04:42;;;;;;;6.20;1.10;;;17.60;99.90;;;;;;5053087;28;20021;-74
2022/09/24 11:07:45;;;;;;;5.38;1.02;;;17.70;99.90;;;;;;5053400;28;20056;-75
2022/09/24 11:10:26;;;;;;;5.40;1.00;;;17.70;99.90;;;;;;5052735;28;20125;-74
2022/09/24 11:13:16;;;;;;;4.93;0.88;;;17.70;99.90;;;;;;5052637;28;20027;-75
2022/09/24 11:15:54;;;;;;;7.88;1.15;;;17.80;99.90;;;;;;5052249;28;20108;-74
2022/09/24 11:18:45;;;;;;;3.35;0.93;;;17.90;99.90;;;;;;5052452;28;20044;-76
2022/09/24 11:21:59;;;;;;;3.73;1.20;;;18.00;99.90;;;;;;5052371;28;20025;-74
2022/09/24 11:25:02;;;;;;;1.92;0.73;;;18.10;99.90;;;;;;5050765;28;20495;-75
2022/09/24 11:27:50;;;;;;;8.95;1.23;;;18.30;99.90;;;;;;5052088;28;20032;-74
2022/09/24 11:31:02;;;;;;;4.85;1.00;;;18.40;99.90;;;;;;5052370;28;20025;-74
2022/09/24 11:33:52;;;;;;;7.03;1.33;;;18.60;99.90;;;;;;5051763;28;20055;-75
2022/09/24 11:36:41;;;;;;;8.15;1.70;;;18.70;99.90;;;;;;5052671;28;20470;-75
2022/09/24 11:39:42;;;;;;;6.25;0.68;;;18.80;99.90;;;;;;5052350;28;20196;-75
2022/09/24 11:42:25;;;;;;;4.43;1.10;;;18.90;99.90;;;;;;5052227;28;20029;-75
2022/09/24 11:45:15;;;;;;;3.25;0.75;;;19.00;99.90;;;;;;5069032;28;20033;-75
2022/09/24 11:48:26;;;;;;;7.05;1.20;;;19.20;99.90;;;;;;5065564;28;20029;-75
2022/09/24 11:51:17;;;;;;;11.23;1.08;;;19.40;99.90;;;;;;5051844;28;20048;-75
2022/09/24 11:54:01;;;;;;;8.68;1.00;;;19.80;99.90;;;;;;5050016;28;20115;-75
2022/09/24 11:56:42;;;;;;;4.90;0.90;;;20.20;99.70;;;;;;5051348;28;20029;-75
2022/09/24 11:59:19;;;;;;;8.18;1.35;;;20.40;98.80;;;;;;5054442;28;20087;-75
2022/09/24 12:01:55;;;;;;;7.85;1.05;;;20.80;97.50;;;;;;5055152;28;20171;-75
2022/09/24 12:04:28;;;;;;;3.25;0.60;;;21.40;97.10;;;;;;5056151;28;20071;-75
2022/09/24 12:07:12;;;;;;;4.43;0.60;;;22.00;95.30;;;;;;5056071;28;20083;-75
2022/09/24 12:09:40;;;;;;;4.90;1.20;;;22.80;94.50;;;;;;5055905;28;20040;-75
2022/09/24 12:12:18;;;;;;;4.38;0.60;;;23.50;93.00;;;;;;5055893;28;20103;-75
2022/09/24 12:14:57;;;;;;;2.15;0.55;;;23.70;92.30;;;;;;5055926;28;20029;-75
2022/09/24 12:17:33;;;;;;;6.13;0.80;;;23.80;91.60;;;;;;5055929;28;20035;-75
2022/09/24 12:20:23;;;;;;;5.35;0.70;;;23.70;91.70;;;;;;5055793;28;20055;-75
2022/09/24 12:22:54;;;;;;;4.18;0.70;;;23.50;90.60;;;;;;5055865;28;20056;-75
2022/09/24 12:25:20;;;;;;;4.30;1.00;;;23.10;91.60;;;;;;5053001;28;20025;-75
2022/09/24 12:27:47;;;;;;;5.30;1.48;;;22.70;91.60;;;;;;5055482;28;20035;-75
2022/09/24 12:33:53;;;;;;;6.75;1.77;;;22.10;91.90;;;;;;5055586;28;20108;-75
2022/09/24 12:36:33;;;;;;;7.53;1.48;;;21.80;92.90;;;;;;5054536;28;20040;-75
2022/09/24 12:39:06;;;;;;;7.50;1.63;;;21.50;93.60;;;;;;5055181;28;20122;-75
2022/09/24 12:41:43;;;;;;;4.47;0.90;;;21.30;93.60;;;;;;5055042;28;20167;-74
2022/09/24 12:44:09;;;;;;;5.75;1.00;;;21.00;92.50;;;;;;5055727;28;20040;-74
2022/09/24 12:46:47;;;;;;;5.45;1.00;;;20.80;93.30;;;;;;5055203;28;20021;-75
2022/09/24 12:49:25;;;;;;;4.40;1.05;;;20.70;93.80;;;;;;5054889;28;20025;-74
2022/09/24 12:52:34;;;;;;;5.57;0.93;;;20.60;94.40;;;;;;5054328;28;20103;-74
2022/09/24 12:55:01;;;;;;;6.47;1.20;;;20.50;94.80;;;;;;5054689;28;20029;-74
2022/09/24 12:57:58;;;;;;;6.75;1.48;;;20.40;95.50;;;;;;5054996;28;20033;-74
2022/09/24 13:00:44;;;;;;;6.95;1.15;;;20.40;96.20;;;;;;5054911;28;20466;-73
2022/09/24 13:03:37;;;;;;;4.15;0.98;;;20.40;95.60;;;;;;5054088;28;20025;-73
2022/09/24 13:06:23;;;;;;;1.50;0.75;;;20.50;95.10;;;;;;5054857;28;20029;-73
2022/09/24 13:08:49;;;;;;;8.93;1.20;;;20.60;93.90;;;;;;5037110;28;20029;-73
2022/09/24 13:11:35;;;;;;;6.20;0.85;;;20.50;94.00;;;;;;5053662;28;20069;-74
2022/09/24 13:14:28;;;;;;;3.13;0.68;;;20.50;93.40;;;;;;5052371;28;20029;-74
2022/09/24 13:16:55;;;;;;;1.48;0.55;;;20.60;93.10;;;;;;5052361;28;20041;-73
2022/09/24 13:19:27;;;;;;;5.85;0.80;;;20.50;93.10;;;;;;5053767;28;20025;-73
2022/09/24 13:21:54;;;;;;;7.00;1.20;;;20.40;93.30;;;;;;5053703;28;20454;-73